createdAt,value
2022-12-04T00:00:56.577Z,8.65
2022-12-04T00:03:26.542Z,9.20
2022-12-04T00:06:04.177Z,8.35
2022-12-04T00:08:33.534Z,7.68
2022-12-04T00:11:24.043Z,8.27
2022-12-04T00:14:12.388Z,7.40
2022-12-04T00:16:46.497Z,7.00
2022-12-04T00:19:15.624Z,7.43
2022-12-04T00:21:45.479Z,7.72
2022-12-04T00:24:17.174Z,8.13
2022-12-04T00:26:53.067Z,7.90
2022-12-04T00:29:22.348Z,6.90
2022-12-04T00:32:01.324Z,6.90
2022-12-04T00:34:39.285Z,7.03
2022-12-04T00:37:20.369Z,8.80
2022-12-04T00:39:52.714Z,8.07
2022-12-04T00:42:32.598Z,8.10
2022-12-04T00:45:15.051Z,7.47
2022-12-04T00:47:56.285Z,8.70
2022-12-04T00:50:55.563Z,9.27
2022-12-04T00:53:30.876Z,8.55
2022-12-04T00:56:11.495Z,6.38
2022-12-04T00:59:04.868Z,8.68
2022-12-04T01:01:58.447Z,6.88
2022-12-04T01:04:29.575Z,6.55
2022-12-04T01:07:08.565Z,7.22
2022-12-04T01:09:53.237Z,7.75
2022-12-04T01:12:25.889Z,7.00
2022-12-04T01:14:57.649Z,6.80
2022-12-04T01:17:31.854Z,7.07
2022-12-04T01:20:06.352Z,6.55
2022-12-04T01:22:39.153Z,6.38
2022-12-04T01:25:08.635Z,6.75
2022-12-04T01:27:36.943Z,9.20
2022-12-04T01:30:07.934Z,7.90
2022-12-04T01:32:36.365Z,8.73
2022-12-04T01:35:05.106Z,7.90
2022-12-04T01:37:33.898Z,8.70
2022-12-04T01:40:02.300Z,8.93
2022-12-04T01:42:30.764Z,8.43
2022-12-04T01:45:37.838Z,11.02
2022-12-04T01:48:14.598Z,8.85
2022-12-04T01:50:44.747Z,8.45
2022-12-04T01:53:14.874Z,7.80
2022-12-04T01:55:45.083Z,8.93
2022-12-04T01:58:13.811Z,8.63
2022-12-04T02:00:47.413Z,7.50
2022-12-04T02:03:19.405Z,7.88
2022-12-04T02:05:47.787Z,7.45
2022-12-04T02:08:16.244Z,9.40
2022-12-04T02:10:57.434Z,7.65
2022-12-04T02:13:33.715Z,9.73
2022-12-04T02:16:09.777Z,8.38
2022-12-04T02:18:46.644Z,7.15
2022-12-04T02:21:22.650Z,7.55
2022-12-04T02:24:23.343Z,8.32
2022-12-04T02:26:57.100Z,8.70
2022-12-04T02:29:36.002Z,9.20
2022-12-04T02:32:13.880Z,8.60
2022-12-04T02:34:46.199Z,8.48
2022-12-04T02:37:20.324Z,8.55
2022-12-04T02:39:55.430Z,8.30
2022-12-04T02:42:34.008Z,7.82
2022-12-04T02:45:07.735Z,8.13
2022-12-04T02:47:38.978Z,7.93
2022-12-04T02:50:11.061Z,8.75
2022-12-04T02:52:43.548Z,7.63
2022-12-04T02:55:17.498Z,8.02
2022-12-04T02:57:51.943Z,7.30
2022-12-04T03:00:22.920Z,9.30
2022-12-04T03:02:57.343Z,7.28
2022-12-04T03:05:31.189Z,7.28
2022-12-04T03:08:06.061Z,5.33
2022-12-04T03:10:40.188Z,6.72
2022-12-04T03:13:13.155Z,6.90
2022-12-04T03:15:46.257Z,6.47
2022-12-04T03:18:19.418Z,6.30
2022-12-04T03:20:53.894Z,6.82
2022-12-04T03:23:27.902Z,7.70
2022-12-04T03:26:02.030Z,8.25
2022-12-04T03:28:36.550Z,7.60
2022-12-04T03:31:08.805Z,6.63
2022-12-04T03:33:41.524Z,6.70
2022-12-04T03:36:17.507Z,8.32
2022-12-04T03:38:52.775Z,7.20
2022-12-04T03:41:27.892Z,8.32
2022-12-04T03:44:01.421Z,6.97
2022-12-04T03:46:36.673Z,6.10
2022-12-04T03:49:13.836Z,10.10
2022-12-04T03:51:47.199Z,9.68
2022-12-04T03:54:18.657Z,9.40
2022-12-04T03:56:51.703Z,8.38
2022-12-04T03:59:24.381Z,7.63
2022-12-04T04:01:57.329Z,7.68
2022-12-04T04:04:31.230Z,7.30
2022-12-04T04:07:05.903Z,5.97
2022-12-04T04:12:11.403Z,7.03
2022-12-04T04:15:01.252Z,7.18
2022-12-04T04:17:53.307Z,6.97
2022-12-04T04:20:42.042Z,6.68
2022-12-04T04:23:30.108Z,7.00
2022-12-04T04:26:01.495Z,7.60
2022-12-04T04:28:35.159Z,6.30
2022-12-04T04:31:12.145Z,7.38
2022-12-04T04:33:48.828Z,7.10
2022-12-04T04:36:25.045Z,6.50
2022-12-04T04:39:01.797Z,5.97
2022-12-04T04:41:40.214Z,6.72
2022-12-04T04:44:18.736Z,6.10
2022-12-04T04:46:52.008Z,5.78
2022-12-04T04:49:25.494Z,5.85
2022-12-04T04:51:55.195Z,5.20
2022-12-04T04:54:24.839Z,4.93
2022-12-04T04:56:53.241Z,5.50
2022-12-04T04:59:21.645Z,5.47
2022-12-04T05:01:50.056Z,5.70
2022-12-04T05:04:18.477Z,4.93
2022-12-04T05:06:48.898Z,6.00
2022-12-04T05:09:17.274Z,5.13
2022-12-04T05:11:45.648Z,5.47
2022-12-04T05:14:14.008Z,5.10
2022-12-04T05:16:42.418Z,5.88
2022-12-04T05:19:28.031Z,5.60
2022-12-04T05:21:58.364Z,4.93
2022-12-04T05:24:26.962Z,5.00
2022-12-04T05:26:55.318Z,5.13
2022-12-04T05:29:23.681Z,5.00
2022-12-04T05:31:52.061Z,4.43
2022-12-04T05:34:20.409Z,4.63
2022-12-04T05:36:48.725Z,4.38
2022-12-04T05:39:18.690Z,4.57
2022-12-04T05:41:47.949Z,5.43
2022-12-04T05:44:16.309Z,4.85
2022-12-04T05:46:44.772Z,4.28
2022-12-04T05:49:13.094Z,4.40
2022-12-04T05:51:41.453Z,4.07
2022-12-04T05:54:09.754Z,5.13
2022-12-04T05:56:39.495Z,4.72
2022-12-04T05:59:07.860Z,4.63
2022-12-04T06:01:36.315Z,4.93
2022-12-04T06:04:05.134Z,4.90
2022-12-04T06:06:33.779Z,4.78
2022-12-04T06:09:02.641Z,5.25
2022-12-04T06:11:33.667Z,5.00
2022-12-04T06:14:05.553Z,5.00
2022-12-04T06:16:36.509Z,5.28
2022-12-04T06:19:07.442Z,5.05
2022-12-04T06:21:37.672Z,4.85
2022-12-04T06:24:08.048Z,4.55
2022-12-04T06:26:36.618Z,5.32
2022-12-04T06:29:06.628Z,4.38
2022-12-04T06:31:36.361Z,5.00
2022-12-04T06:34:05.938Z,4.65
2022-12-04T06:36:34.804Z,5.70
2022-12-04T06:39:18.920Z,5.05
2022-12-04T06:41:49.626Z,5.10
2022-12-04T06:44:24.094Z,4.57
2022-12-04T06:47:03.466Z,5.03
2022-12-04T06:55:39.691Z,5.72
2022-12-04T06:58:17.298Z,6.55
2022-12-04T07:01:08.700Z,6.57
2022-12-04T07:03:47.822Z,4.07
2022-12-04T07:06:39.196Z,5.82
2022-12-04T07:09:32.828Z,4.82
2022-12-04T07:12:07.639Z,6.32
2022-12-04T07:14:41.129Z,5.70
2022-12-04T07:17:16.997Z,5.63
2022-12-04T07:19:57.173Z,5.97
2022-12-04T07:22:34.252Z,5.68
2022-12-04T07:25:23.701Z,6.20
2022-12-04T07:27:59.468Z,5.35
2022-12-04T07:30:31.097Z,4.88
2022-12-04T07:33:13.549Z,5.22
2022-12-04T07:36:08.796Z,6.20
2022-12-04T07:38:46.247Z,4.60
2022-12-04T07:41:21.919Z,4.72
2022-12-04T07:43:56.973Z,4.80
2022-12-04T07:46:31.413Z,4.40
2022-12-04T07:49:04.949Z,4.00
2022-12-04T07:51:38.287Z,4.93
2022-12-04T07:54:11.118Z,4.63
2022-12-04T07:56:44.795Z,5.03
2022-12-04T07:59:24.377Z,5.30
2022-12-04T08:01:59.458Z,3.90
2022-12-04T08:04:39.895Z,4.68
2022-12-04T08:07:11.826Z,4.30
2022-12-04T08:09:50.293Z,4.10
2022-12-04T08:12:22.111Z,4.40
2022-12-04T08:15:03.826Z,4.65
2022-12-04T08:17:38.393Z,4.80
2022-12-04T08:20:16.023Z,3.78
2022-12-04T08:23:03.671Z,4.03
2022-12-04T08:25:34.002Z,4.10
2022-12-04T08:28:09.272Z,3.85
2022-12-04T08:30:50.374Z,3.75
2022-12-04T08:33:23.803Z,3.90
2022-12-04T08:36:23.326Z,4.18
2022-12-04T08:38:57.421Z,6.70
2022-12-04T08:41:34.974Z,7.40
2022-12-04T08:44:08.146Z,8.35
2022-12-04T08:46:55.561Z,5.93
2022-12-04T08:49:30.714Z,7.18
2022-12-04T08:52:28.009Z,6.85
2022-12-04T08:55:07.963Z,4.35
2022-12-04T08:57:52.987Z,6.00
2022-12-04T09:00:25.829Z,5.68
2022-12-04T09:03:03.266Z,7.43
2022-12-04T09:05:55.404Z,5.72
2022-12-04T09:08:33.546Z,4.45
2022-12-04T09:11:14.653Z,5.07
2022-12-04T09:13:51.974Z,6.43
2022-12-04T09:16:38.227Z,5.03
2022-12-04T09:19:13.690Z,5.82
2022-12-04T09:21:57.539Z,5.82
2022-12-04T09:24:33.514Z,6.38
2022-12-04T09:27:26.511Z,5.80
2022-12-04T09:29:57.126Z,5.70
2022-12-04T09:32:32.329Z,6.32
2022-12-04T09:38:11.316Z,5.45
2022-12-04T09:40:55.122Z,5.68
2022-12-04T09:43:34.992Z,4.50
2022-12-04T09:46:20.789Z,4.72
2022-12-04T09:48:53.855Z,4.70
2022-12-04T09:51:30.063Z,4.20
2022-12-04T09:54:13.670Z,4.53
2022-12-04T09:57:00.451Z,4.22
2022-12-04T09:59:41.861Z,4.80
2022-12-04T10:02:30.220Z,5.22
2022-12-04T10:05:10.074Z,4.13
2022-12-04T10:08:01.905Z,4.78
2022-12-04T10:10:42.200Z,4.55
2022-12-04T10:14:04.184Z,5.20
2022-12-04T10:16:48.965Z,5.93
2022-12-04T10:19:40.092Z,4.60
2022-12-04T10:22:23.167Z,6.00
2022-12-04T10:25:04.287Z,4.88
2022-12-04T10:27:42.205Z,4.63
2022-12-04T10:30:20.865Z,6.57
2022-12-04T10:32:59.474Z,5.45
2022-12-04T10:35:38.600Z,6.30
2022-12-04T10:38:30.532Z,6.25
2022-12-04T10:41:15.103Z,4.57
2022-12-04T10:44:02.029Z,4.70
2022-12-04T10:46:46.563Z,4.75
2022-12-04T10:49:24.042Z,5.50
2022-12-04T10:51:55.120Z,4.70
2022-12-04T10:54:36.730Z,5.97
2022-12-04T10:57:14.279Z,6.38
2022-12-04T10:59:59.756Z,6.22
2022-12-04T11:02:40.454Z,4.45
2022-12-04T11:05:30.924Z,6.20
2022-12-04T11:08:08.957Z,6.63
2022-12-04T11:10:43.754Z,5.20
2022-12-04T11:16:01.841Z,5.35
2022-12-04T11:18:53.438Z,4.82
2022-12-04T11:21:30.112Z,7.20
2022-12-04T11:24:06.040Z,6.53
2022-12-04T11:26:51.265Z,5.28
2022-12-04T11:29:33.446Z,6.85
2022-12-04T11:32:22.106Z,5.20
2022-12-04T11:35:04.763Z,5.13
2022-12-04T11:37:47.468Z,7.03
2022-12-04T11:40:21.312Z,8.13
2022-12-04T11:43:10.663Z,6.13
2022-12-04T11:45:49.016Z,5.38
2022-12-04T11:48:22.877Z,7.18
2022-12-04T11:51:09.597Z,6.03
2022-12-04T11:54:08.864Z,5.10
2022-12-04T11:56:55.725Z,4.70
2022-12-04T11:59:55.984Z,6.82
2022-12-04T12:02:54.551Z,4.50
2022-12-04T12:06:16.174Z,4.55
2022-12-04T12:09:20.709Z,4.68
2022-12-04T12:12:03.552Z,6.03
2022-12-04T12:14:47.086Z,4.93
2022-12-04T12:17:44.241Z,4.90
2022-12-04T12:20:30.893Z,5.95
2022-12-04T12:26:21.996Z,5.85
2022-12-04T12:29:24.689Z,5.70
2022-12-04T12:32:25.503Z,4.70
2022-12-04T12:35:04.223Z,5.25
2022-12-04T12:37:54.298Z,7.25
2022-12-04T12:40:33.699Z,6.22
2022-12-04T12:43:13.637Z,7.07
2022-12-04T12:45:53.565Z,5.65
2022-12-04T12:48:36.685Z,4.90
2022-12-04T12:51:34.271Z,5.38
2022-12-04T12:54:25.984Z,4.90
2022-12-04T12:57:10.592Z,5.18
2022-12-04T12:59:54.348Z,4.70
2022-12-04T13:02:30.015Z,4.25
2022-12-04T13:05:09.282Z,4.15
2022-12-04T13:07:51.265Z,4.97
2022-12-04T13:10:33.960Z,4.20
2022-12-04T13:13:10.151Z,4.25
2022-12-04T13:15:50.562Z,4.45
2022-12-04T13:18:41.236Z,4.50
2022-12-04T13:21:33.138Z,4.32
2022-12-04T13:24:39.728Z,4.35
2022-12-04T13:27:22.568Z,4.60
2022-12-04T13:30:07.194Z,4.85
2022-12-04T13:33:21.878Z,3.88
2022-12-04T13:36:13.728Z,4.22
2022-12-04T13:39:10.154Z,4.78
2022-12-04T13:41:42.081Z,5.60
2022-12-04T13:44:29.557Z,4.22
2022-12-04T13:47:15.816Z,4.07
2022-12-04T13:49:55.116Z,4.10
2022-12-04T13:52:47.937Z,4.28
2022-12-04T13:55:43.584Z,4.30
2022-12-04T13:58:34.024Z,4.97
2022-12-04T14:01:25.518Z,4.40
2022-12-04T14:04:01.241Z,4.20
2022-12-04T14:06:43.642Z,4.68
2022-12-04T14:09:32.484Z,4.72
2022-12-04T14:12:09.723Z,4.13
2022-12-04T14:14:52.737Z,6.97
2022-12-04T14:17:32.941Z,4.20
2022-12-04T14:20:08.397Z,5.72
2022-12-04T14:23:00.963Z,7.07
2022-12-04T14:25:41.932Z,6.05
2022-12-04T14:28:28.066Z,5.65
2022-12-04T14:31:32.911Z,6.05
2022-12-04T14:34:09.761Z,5.85
2022-12-04T14:36:49.415Z,5.55
2022-12-04T14:39:38.930Z,5.97
2022-12-04T14:42:26.572Z,4.90
2022-12-04T14:45:09.747Z,4.75
2022-12-04T14:48:00.873Z,4.78
2022-12-04T14:50:50.968Z,5.70
2022-12-04T14:53:43.144Z,5.00
2022-12-04T14:56:40.027Z,5.75
2022-12-04T14:59:28.806Z,6.22
2022-12-04T15:02:08.148Z,6.47
2022-12-04T15:04:47.706Z,6.20
2022-12-04T15:07:28.431Z,6.20
2022-12-04T15:10:22.039Z,5.82
2022-12-04T15:13:06.716Z,6.93
2022-12-04T15:15:52.632Z,7.00
2022-12-04T15:18:24.111Z,5.95
2022-12-04T15:21:03.796Z,6.05
2022-12-04T15:23:42.965Z,6.60
2022-12-04T15:26:33.452Z,6.65
2022-12-04T15:29:08.302Z,8.07
2022-12-04T15:31:47.839Z,5.93
2022-12-04T15:34:26.358Z,5.40
2022-12-04T15:37:06.602Z,5.25
2022-12-04T15:39:39.250Z,5.00
2022-12-04T15:42:17.642Z,5.22
2022-12-04T15:45:01.064Z,7.18
2022-12-04T15:47:34.858Z,5.60
2022-12-04T15:50:39.952Z,6.00
2022-12-04T15:53:17.967Z,5.97
2022-12-04T15:56:01.203Z,6.70
2022-12-04T15:58:35.926Z,5.80
2022-12-04T16:01:16.400Z,6.00
2022-12-04T16:03:50.507Z,6.03
2022-12-04T16:06:32.529Z,5.88
2022-12-04T16:09:24.036Z,5.55
2022-12-04T16:12:04.057Z,6.05
2022-12-04T16:14:39.143Z,6.20
2022-12-04T16:17:16.382Z,7.05
2022-12-04T16:19:52.590Z,5.25
2022-12-04T16:22:27.328Z,5.53
2022-12-04T16:24:57.136Z,5.47
2022-12-04T16:27:42.036Z,6.47
2022-12-04T16:30:22.239Z,5.15
2022-12-04T16:33:01.157Z,4.93
2022-12-04T16:35:32.859Z,4.70
2022-12-04T16:38:04.202Z,5.15
2022-12-04T16:40:36.331Z,6.00
2022-12-04T16:43:07.021Z,7.90
2022-12-04T16:45:39.670Z,8.38
2022-12-04T16:48:14.983Z,6.13
2022-12-04T16:50:47.685Z,6.22
2022-12-04T16:53:23.339Z,6.10
2022-12-04T16:55:57.231Z,8.57
2022-12-04T16:58:27.806Z,7.50
2022-12-04T17:00:59.199Z,6.80
2022-12-04T17:03:37.280Z,7.88
2022-12-04T17:06:13.551Z,8.27
2022-12-04T17:08:47.929Z,8.73
2022-12-04T17:11:20.886Z,8.27
2022-12-04T17:13:53.987Z,9.23
2022-12-04T17:16:30.463Z,8.98
2022-12-04T17:19:02.761Z,9.50
2022-12-04T17:21:40.421Z,8.00
2022-12-04T17:24:17.391Z,8.50
2022-12-04T17:26:48.024Z,8.70
2022-12-04T17:29:18.560Z,15.05
2022-12-04T17:31:48.620Z,10.63
2022-12-04T17:34:23.224Z,7.97
2022-12-04T17:36:54.864Z,7.97
2022-12-04T17:39:31.979Z,8.35
2022-12-04T17:42:08.193Z,10.20
2022-12-04T17:44:43.545Z,7.07
2022-12-04T17:47:15.903Z,7.18
2022-12-04T17:49:46.129Z,7.70
2022-12-04T17:52:24.945Z,7.00
2022-12-04T17:54:58.694Z,7.68
2022-12-04T17:57:30.414Z,8.10
2022-12-04T18:00:03.392Z,8.35
2022-12-04T18:02:52.848Z,9.02
2022-12-04T18:05:26.354Z,7.10
2022-12-04T18:08:02.842Z,10.40
2022-12-04T18:10:39.143Z,8.23
2022-12-04T18:13:08.938Z,7.28
2022-12-04T18:15:40.358Z,8.57
2022-12-04T18:18:11.174Z,7.32
2022-12-04T18:20:42.047Z,7.15
2022-12-04T18:23:12.833Z,7.57
2022-12-04T18:25:56.210Z,7.05
2022-12-04T18:28:29.639Z,5.70
2022-12-04T18:31:05.162Z,7.25
2022-12-04T18:33:35.004Z,6.95
2022-12-04T18:36:16.949Z,5.13
2022-12-04T18:38:54.116Z,6.13
2022-12-04T18:41:23.110Z,5.35
2022-12-04T18:43:54.090Z,5.43
2022-12-04T18:46:36.177Z,7.03
2022-12-04T18:49:13.019Z,7.60
2022-12-04T18:56:35.838Z,9.52
2022-12-04T18:59:33.310Z,9.98
2022-12-04T19:02:28.182Z,10.80
2022-12-04T19:05:10.224Z,10.60
2022-12-04T19:07:52.776Z,10.10
2022-12-04T19:10:31.140Z,9.27
2022-12-04T19:13:15.145Z,10.25
2022-12-04T19:15:58.474Z,9.73
2022-12-04T19:18:34.859Z,11.68
2022-12-04T19:21:12.229Z,10.18
2022-12-04T19:23:47.620Z,14.95
2022-12-04T19:26:23.184Z,12.75
2022-12-04T19:28:59.583Z,11.05
2022-12-04T19:31:59.087Z,9.35
2022-12-04T19:34:28.243Z,10.23
2022-12-04T19:36:57.480Z,11.52
2022-12-04T19:39:39.694Z,9.57
2022-12-04T19:42:12.368Z,10.10
2022-12-04T19:44:50.229Z,10.40
2022-12-04T19:47:35.092Z,10.60
2022-12-04T19:50:12.894Z,9.80
2022-12-04T19:52:58.048Z,9.27
2022-12-04T19:55:52.653Z,9.57
2022-12-04T19:58:26.210Z,9.52
2022-12-04T20:00:57.683Z,9.85
2022-12-04T20:03:26.618Z,9.40
2022-12-04T20:06:04.719Z,9.63
2022-12-04T20:08:49.183Z,8.43
2022-12-04T20:11:33.904Z,10.82
2022-12-04T20:14:10.908Z,10.27
2022-12-04T20:16:43.755Z,11.75
2022-12-04T20:19:20.284Z,11.43
2022-12-04T20:21:57.648Z,10.52
2022-12-04T20:24:34.734Z,11.35
2022-12-04T20:27:31.276Z,12.93
2022-12-04T20:30:13.714Z,11.35
2022-12-04T20:33:04.589Z,10.55
2022-12-04T20:35:56.946Z,10.77
2022-12-04T20:38:28.878Z,10.10
2022-12-04T20:41:12.491Z,12.38
2022-12-04T20:43:41.597Z,10.82
2022-12-04T20:46:15.434Z,10.45
2022-12-04T20:49:01.021Z,10.02
2022-12-04T20:51:40.491Z,11.27
2022-12-04T20:54:14.418Z,9.73
2022-12-04T20:56:43.113Z,10.18
2022-12-04T20:59:26.575Z,9.30
2022-12-04T21:02:15.518Z,9.68
2022-12-04T21:04:47.412Z,9.50
2022-12-04T21:07:32.460Z,9.57
2022-12-04T21:10:02.616Z,8.48
2022-12-04T21:12:54.757Z,9.95
2022-12-04T21:15:46.794Z,10.50
2022-12-04T21:18:26.214Z,9.52
2022-12-04T21:20:57.782Z,10.02
2022-12-04T21:23:42.353Z,9.52
2022-12-04T21:26:18.589Z,8.05
2022-12-04T21:29:03.099Z,8.40
2022-12-04T21:31:39.541Z,8.45
2022-12-04T21:34:26.808Z,9.75
2022-12-04T21:37:01.521Z,9.15
2022-12-04T21:39:37.201Z,8.13
2022-12-04T21:42:36.748Z,7.72
2022-12-04T21:45:21.207Z,7.60
2022-12-04T21:47:59.480Z,9.13
2022-12-04T21:50:28.997Z,8.38
2022-12-04T21:53:14.720Z,9.00
2022-12-04T21:56:01.449Z,7.40
2022-12-04T21:58:40.517Z,9.65
2022-12-04T22:01:26.019Z,8.73
2022-12-04T22:03:56.873Z,9.15
2022-12-04T22:06:30.826Z,7.38
2022-12-04T22:09:16.522Z,7.72
2022-12-04T22:12:14.686Z,7.80
2022-12-04T22:14:57.568Z,7.10
2022-12-04T22:17:32.413Z,9.20
2022-12-04T22:20:08.797Z,7.53
2022-12-04T22:22:47.372Z,7.95
2022-12-04T22:25:22.234Z,8.38
2022-12-04T22:28:03.683Z,8.02
2022-12-04T22:30:42.091Z,8.32
2022-12-04T22:33:11.410Z,8.23
2022-12-04T22:35:40.345Z,8.07
2022-12-04T22:38:20.532Z,7.60
2022-12-04T22:41:06.656Z,7.85
2022-12-04T22:43:41.069Z,7.55
2022-12-04T22:46:22.677Z,7.88
2022-12-04T22:49:05.195Z,9.18
2022-12-04T22:51:55.258Z,8.00
2022-12-04T22:54:34.314Z,7.63
2022-12-04T22:57:18.293Z,7.68
2022-12-04T23:00:01.999Z,9.27
2022-12-04T23:03:09.200Z,8.13
2022-12-04T23:05:56.800Z,7.78
2022-12-04T23:08:51.723Z,8.93
2022-12-04T23:14:29.554Z,9.60
2022-12-04T23:17:10.005Z,6.65
2022-12-04T23:20:02.164Z,5.57
2022-12-04T23:22:33.185Z,7.78
2022-12-04T23:25:10.540Z,7.45
2022-12-04T23:27:47.600Z,7.82
2022-12-04T23:30:32.737Z,8.52
2022-12-04T23:33:27.804Z,7.45
2022-12-04T23:39:06.182Z,6.90
2022-12-04T23:41:52.270Z,8.35
2022-12-04T23:45:15.792Z,7.03
2022-12-04T23:48:12.531Z,7.22
2022-12-04T23:51:20.554Z,7.40
2022-12-04T23:53:51.740Z,6.90
2022-12-04T23:56:34.148Z,7.20
2022-12-04T23:59:16.952Z,7.50
